Terminal Aerodrome Forecast
Issued by NWS Huntsville, AL

Home | Current Version | Previous Version | Text Only | Print | Product List | Glossary On
Versions: 1 2 3 4 5 6 7 8 9 10 11 12 13
000
FTUS44 KHUN 291139 AAA
TAFHSV
TAF AMD
KHSV 291139Z 2912/3012 13004KT P6SM VCSH BKN035 OVC050
     FM291500 14008KT P6SM -RA BKN025 OVC040
     FM291800 14008KT 6SM -SHRA BR VCTS BKN025CB OVC040
     FM300000 15006KT P6SM OVC025
     FM300500 15006KT 4SM -SHRA BR OVC015=

USA.gov is the U.S. government's official web portal to all federal, state and local government web resources and services.